sensor_id;sensor_type;location;lat;lon;timestamp;pressure;altitude;pressure_sealevel;temperature;humidity
70229;BME280;57617;51.988;5.854;2022-07-30T00:01:24;101308.78;;;19.78;64.02
70229;BME280;57617;51.988;5.854;2022-07-30T00:03:50;101316.50;;;19.76;64.24
70229;BME280;57617;51.988;5.854;2022-07-30T00:06:15;101312.41;;;19.74;64.42
70229;BME280;57617;51.988;5.854;2022-07-30T00:08:40;101309.13;;;19.72;64.17
70229;BME280;57617;51.988;5.854;2022-07-30T00:11:06;101303.13;;;19.65;65.10
70229;BME280;57617;51.988;5.854;2022-07-30T00:13:31;101308.03;;;19.68;65.21
70229;BME280;57617;51.988;5.854;2022-07-30T00:15:56;101308.31;;;19.66;64.91
70229;BME280;57617;51.988;5.854;2022-07-30T00:18:22;101308.31;;;19.66;65.45
70229;BME280;57617;51.988;5.854;2022-07-30T00:20:47;101312.75;;;19.67;65.19
70229;BME280;57617;51.988;5.854;2022-07-30T00:23:12;101306.94;;;19.69;65.53
70229;BME280;57617;51.988;5.854;2022-07-30T00:25:38;101310.28;;;19.66;65.46
70229;BME280;57617;51.988;5.854;2022-07-30T00:28:03;101298.69;;;19.64;65.66
70229;BME280;57617;51.988;5.854;2022-07-30T00:30:28;101301.22;;;19.60;65.83
70229;BME280;57617;51.988;5.854;2022-07-30T00:32:54;101305.88;;;19.65;65.97
70229;BME280;57617;51.988;5.854;2022-07-30T00:35:19;101305.56;;;19.66;65.99
70229;BME280;57617;51.988;5.854;2022-07-30T00:37:44;101310.84;;;19.63;66.16
70229;BME280;57617;51.988;5.854;2022-07-30T00:40:10;101305.94;;;19.60;66.25
70229;BME280;57617;51.988;5.854;2022-07-30T00:42:42;101305.38;;;19.58;66.61
70229;BME280;57617;51.988;5.854;2022-07-30T00:45:09;101304.84;;;19.56;66.45
70229;BME280;57617;51.988;5.854;2022-07-30T00:47:35;101301.25;;;19.55;66.81
70229;BME280;57617;51.988;5.854;2022-07-30T00:50:02;101297.97;;;19.53;66.61
70229;BME280;57617;51.988;5.854;2022-07-30T00:52:30;101303.72;;;19.57;66.91
70229;BME280;57617;51.988;5.854;2022-07-30T00:54:56;101306.47;;;19.57;66.87
70229;BME280;57617;51.988;5.854;2022-07-30T00:57:21;101297.09;;;19.58;66.74
70229;BME280;57617;51.988;5.854;2022-07-30T00:59:46;101301.81;;;19.57;67.04
70229;BME280;57617;51.988;5.854;2022-07-30T01:02:12;101302.09;;;19.56;66.96
70229;BME280;57617;51.988;5.854;2022-07-30T01:04:37;101291.34;;;19.54;66.92
70229;BME280;57617;51.988;5.854;2022-07-30T01:07:02;101294.38;;;19.53;67.34
70229;BME280;57617;51.988;5.854;2022-07-30T01:09:28;101288.59;;;19.54;67.10
70229;BME280;57617;51.988;5.854;2022-07-30T01:11:53;101296.06;;;19.54;67.26
70229;BME280;57617;51.988;5.854;2022-07-30T01:14:19;101269.13;;;19.41;67.29
70229;BME280;57617;51.988;5.854;2022-07-30T01:16:44;101282.84;;;19.51;67.34
70229;BME280;57617;51.988;5.854;2022-07-30T01:19:15;101259.81;;;19.37;67.70
70229;BME280;57617;51.988;5.854;2022-07-30T01:22:09;101294.97;;;19.50;68.05
70229;BME280;57617;51.988;5.854;2022-07-30T01:24:42;101282.00;;;19.50;67.63
70229;BME280;57617;51.988;5.854;2022-07-30T01:27:10;101288.63;;;19.49;67.61
70229;BME280;57617;51.988;5.854;2022-07-30T01:29:37;101286.16;;;19.48;67.80
70229;BME280;57617;51.988;5.854;2022-07-30T01:32:04;101291.66;;;19.48;67.72
70229;BME280;57617;51.988;5.854;2022-07-30T01:34:32;101290.88;;;19.47;67.57
70229;BME280;57617;51.988;5.854;2022-07-30T01:36:58;101288.91;;;19.48;67.78
70229;BME280;57617;51.988;5.854;2022-07-30T01:39:25;101284.81;;;19.45;67.75
70229;BME280;57617;51.988;5.854;2022-07-30T01:41:52;101287.88;;;19.44;67.72
70229;BME280;57617;51.988;5.854;2022-07-30T01:44:19;101292.81;;;19.42;67.77
70229;BME280;57617;51.988;5.854;2022-07-30T01:46:46;101291.47;;;19.39;67.87
70229;BME280;57617;51.988;5.854;2022-07-30T01:49:12;101292.31;;;19.40;67.86
70229;BME280;57617;51.988;5.854;2022-07-30T01:51:38;101292.03;;;19.41;68.15
70229;BME280;57617;51.988;5.854;2022-07-30T01:54:08;101286.19;;;19.43;68.28
70229;BME280;57617;51.988;5.854;2022-07-30T01:56:36;101286.19;;;19.43;68.18
70229;BME280;57617;51.988;5.854;2022-07-30T01:59:02;101287.88;;;19.44;67.98
70229;BME280;57617;51.988;5.854;2022-07-30T02:01:29;101290.06;;;19.42;68.19
70229;BME280;57617;51.988;5.854;2022-07-30T02:03:54;101292.53;;;19.43;68.32
70229;BME280;57617;51.988;5.854;2022-07-30T02:06:22;101292.81;;;19.42;68.15
70229;BME280;57617;51.988;5.854;2022-07-30T02:08:53;101296.13;;;19.44;68.36
70229;BME280;57617;51.988;5.854;2022-07-30T02:11:19;101291.66;;;19.48;68.30
70229;BME280;57617;51.988;5.854;2022-07-30T02:14:11;101294.97;;;19.50;68.62
70229;BME280;57617;51.988;5.854;2022-07-30T02:16:39;101297.97;;;19.53;68.34
70229;BME280;57617;51.988;5.854;2022-07-30T02:19:15;101300.72;;;19.53;69.06
70229;BME280;57617;51.988;5.854;2022-07-30T02:21:46;101304.31;;;19.54;68.79
70229;BME280;57617;51.988;5.854;2022-07-30T02:24:15;101296.84;;;19.54;68.50
70229;BME280;57617;51.988;5.854;2022-07-30T02:26:47;101305.41;;;19.53;68.39
70229;BME280;57617;51.988;5.854;2022-07-30T02:29:15;101301.00;;;19.52;68.63
70229;BME280;57617;51.988;5.854;2022-07-30T02:31:42;101306.00;;;19.50;68.77
70229;BME280;57617;51.988;5.854;2022-07-30T02:34:08;101301.28;;;19.50;68.76
70229;BME280;57617;51.988;5.854;2022-07-30T02:36:36;101306.28;;;19.48;68.50
70229;BME280;57617;51.988;5.854;2022-07-30T02:39:03;101303.00;;;19.46;68.53
70229;BME280;57617;51.988;5.854;2022-07-30T02:41:30;101299.41;;;19.46;68.77
70229;BME280;57617;51.988;5.854;2022-07-30T02:43:56;101306.56;;;19.47;68.75
70229;BME280;57617;51.988;5.854;2022-07-30T02:46:23;101293.94;;;19.41;68.97
70229;BME280;57617;51.988;5.854;2022-07-30T02:48:50;101304.09;;;19.45;68.97
70229;BME280;57617;51.988;5.854;2022-07-30T02:51:18;101297.53;;;19.41;69.01
70229;BME280;57617;51.988;5.854;2022-07-30T02:53:45;101304.94;;;19.46;68.87
70229;BME280;57617;51.988;5.854;2022-07-30T02:56:12;101302.16;;;19.46;69.32
70229;BME280;57617;51.988;5.854;2022-07-30T02:58:41;101292.81;;;19.42;68.91
70229;BME280;57617;51.988;5.854;2022-07-30T03:01:08;101296.38;;;19.47;69.22
70229;BME280;57617;51.988;5.854;2022-07-30T03:03:35;101305.47;;;19.43;69.13
70229;BME280;57617;51.988;5.854;2022-07-30T03:06:01;101301.09;;;19.42;69.50
70229;BME280;57617;51.988;5.854;2022-07-30T03:08:28;101300.28;;;19.41;69.18
70229;BME280;57617;51.988;5.854;2022-07-30T03:10:56;101290.69;;;19.34;69.41
70229;BME280;57617;51.988;5.854;2022-07-30T03:13:21;101302.22;;;19.41;69.42
70229;BME280;57617;51.988;5.854;2022-07-30T03:15:49;101306.06;;;19.40;69.50
70229;BME280;57617;51.988;5.854;2022-07-30T03:18:17;101301.69;;;19.39;69.66
70229;BME280;57617;51.988;5.854;2022-07-30T03:20:45;101305.25;;;19.39;69.42
70229;BME280;57617;51.988;5.854;2022-07-30T03:23:12;101301.38;;;19.40;69.60
70229;BME280;57617;51.988;5.854;2022-07-30T03:25:41;101305.53;;;19.38;69.68
70229;BME280;57617;51.988;5.854;2022-07-30T03:28:09;101308.28;;;19.38;69.57
70229;BME280;57617;51.988;5.854;2022-07-30T03:30:36;101311.03;;;19.38;69.94
70229;BME280;57617;51.988;5.854;2022-07-30T03:33:01;101309.94;;;19.39;69.61
70229;BME280;57617;51.988;5.854;2022-07-30T03:35:26;101308.28;;;19.38;69.65
70229;BME280;57617;51.988;5.854;2022-07-30T03:37:52;101308.88;;;19.35;69.50
70229;BME280;57617;51.988;5.854;2022-07-30T03:40:19;101319.88;;;19.35;69.49
70229;BME280;57617;51.988;5.854;2022-07-30T03:42:45;101318.53;;;19.32;69.65
70229;BME280;57617;51.988;5.854;2022-07-30T03:45:12;101321.56;;;19.31;69.68
70229;BME280;57617;51.988;5.854;2022-07-30T03:47:38;101315.22;;;19.30;69.95
70229;BME280;57617;51.988;5.854;2022-07-30T03:50:06;101317.97;;;19.30;69.69
70229;BME280;57617;51.988;5.854;2022-07-30T03:52:33;101317.44;;;19.28;69.75
70229;BME280;57617;51.988;5.854;2022-07-30T03:55:00;101307.56;;;19.22;70.01
70229;BME280;57617;51.988;5.854;2022-07-30T03:57:26;101317.72;;;19.27;69.91
70229;BME280;57617;51.988;5.854;2022-07-30T03:59:51;101328.75;;;19.27;70.01
70229;BME280;57617;51.988;5.854;2022-07-30T04:02:17;101323.25;;;19.27;70.12
70229;BME280;57617;51.988;5.854;2022-07-30T04:04:42;101320.75;;;19.25;69.95
70229;BME280;57617;51.988;5.854;2022-07-30T04:07:08;101316.91;;;19.26;69.90
70229;BME280;57617;51.988;5.854;2022-07-30T04:09:33;101319.38;;;19.28;70.22
70229;BME280;57617;51.988;5.854;2022-07-30T04:11:58;101316.06;;;19.31;70.49
70229;BME280;57617;51.988;5.854;2022-07-30T04:14:24;101321.00;;;19.34;70.28
70229;BME280;57617;51.988;5.854;2022-07-30T04:16:55;101324.28;;;19.36;70.48
70229;BME280;57617;51.988;5.854;2022-07-30T04:19:27;101315.22;;;19.30;70.09
70229;BME280;57617;51.988;5.854;2022-07-30T04:21:54;101324.03;;;19.32;70.29
70229;BME280;57617;51.988;5.854;2022-07-30T04:24:21;101328.44;;;19.33;70.25
70229;BME280;57617;51.988;5.854;2022-07-30T04:26:47;101322.41;;;19.31;70.40
70229;BME280;57617;51.988;5.854;2022-07-30T04:29:14;101330.66;;;19.31;70.30
70229;BME280;57617;51.988;5.854;2022-07-30T04:31:39;101329.00;;;19.30;70.49
70229;BME280;57617;51.988;5.854;2022-07-30T04:34:05;101319.41;;;19.23;70.43
70229;BME280;57617;51.988;5.854;2022-07-30T04:36:31;101320.75;;;19.25;69.99
70229;BME280;57617;51.988;5.854;2022-07-30T04:38:58;101337.56;;;19.29;70.29
70229;BME280;57617;51.988;5.854;2022-07-30T04:41:24;101340.59;;;19.27;69.96
70229;BME280;57617;51.988;5.854;2022-07-30T04:43:50;101343.06;;;19.29;70.33
70229;BME280;57617;51.988;5.854;2022-07-30T04:46:16;101349.66;;;19.28;70.18
70229;BME280;57617;51.988;5.854;2022-07-30T04:48:41;101341.72;;;19.26;70.00
70229;BME280;57617;51.988;5.854;2022-07-30T04:51:16;101323.59;;;19.10;70.36
70229;BME280;57617;51.988;5.854;2022-07-30T04:53:42;101346.66;;;19.24;70.35
70229;BME280;57617;51.988;5.854;2022-07-30T04:56:10;101350.53;;;19.23;70.27
70229;BME280;57617;51.988;5.854;2022-07-30T04:58:36;101357.97;;;19.23;70.34
70229;BME280;57617;51.988;5.854;2022-07-30T05:01:02;101355.22;;;19.23;70.29
70229;BME280;57617;51.988;5.854;2022-07-30T05:03:29;101360.72;;;19.23;70.30
70229;BME280;57617;51.988;5.854;2022-07-30T05:05:57;101360.44;;;19.24;70.22
70229;BME280;57617;51.988;5.854;2022-07-30T05:08:26;101362.38;;;19.24;69.96
70229;BME280;57617;51.988;5.854;2022-07-30T05:10:52;101355.22;;;19.18;70.07
70229;BME280;57617;51.988;5.854;2022-07-30T05:13:17;101365.13;;;19.19;70.35
70229;BME280;57617;51.988;5.854;2022-07-30T05:15:43;101361.56;;;19.13;70.21
70229;BME280;57617;51.988;5.854;2022-07-30T05:18:09;101367.06;;;19.18;70.15
70229;BME280;57617;51.988;5.854;2022-07-30T05:20:34;101369.00;;;19.18;70.16
70229;BME280;57617;51.988;5.854;2022-07-30T05:23:00;101374.53;;;19.18;70.25
70229;BME280;57617;51.988;5.854;2022-07-30T05:25:25;101370.94;;;19.17;70.02
70229;BME280;57617;51.988;5.854;2022-07-30T05:27:51;101371.75;;;19.18;69.46
70229;BME280;57617;51.988;5.854;2022-07-30T05:30:16;101379.44;;;19.21;69.91
70229;BME280;57617;51.988;5.854;2022-07-30T05:32:41;101372.00;;;19.21;69.59
70229;BME280;57617;51.988;5.854;2022-07-30T05:35:08;101373.41;;;19.24;69.79
70229;BME280;57617;51.988;5.854;2022-07-30T05:37:33;101376.16;;;19.24;69.84
70229;BME280;57617;51.988;5.854;2022-07-30T05:39:59;101382.19;;;19.26;69.89
70229;BME280;57617;51.988;5.854;2022-07-30T05:42:24;101383.56;;;19.28;69.92
70229;BME280;57617;51.988;5.854;2022-07-30T05:44:49;101390.44;;;19.31;69.51
70229;BME280;57617;51.988;5.854;2022-07-30T05:47:15;101384.38;;;19.34;69.75
70229;BME280;57617;51.988;5.854;2022-07-30T05:49:42;101382.13;;;19.36;69.73
70229;BME280;57617;51.988;5.854;2022-07-30T05:52:07;101385.16;;;19.39;69.22
70229;BME280;57617;51.988;5.854;2022-07-30T05:54:32;101385.72;;;19.41;69.73
70229;BME280;57617;51.988;5.854;2022-07-30T05:56:58;101389.81;;;19.44;69.18
70229;BME280;57617;51.988;5.854;2022-07-30T05:59:23;101387.59;;;19.46;69.41
70229;BME280;57617;51.988;5.854;2022-07-30T06:01:48;101392.53;;;19.49;69.29
70229;BME280;57617;51.988;5.854;2022-07-30T06:04:14;101388.41;;;19.51;69.31
70229;BME280;57617;51.988;5.854;2022-07-30T06:06:39;101395.28;;;19.54;69.28
70229;BME280;57617;51.988;5.854;2022-07-30T06:09:04;101391.94;;;19.57;69.15
70229;BME280;57617;51.988;5.854;2022-07-30T06:11:29;101388.38;;;19.56;69.08
70229;BME280;57617;51.988;5.854;2022-07-30T06:13:55;101388.06;;;19.58;69.20
70229;BME280;57617;51.988;5.854;2022-07-30T06:16:20;101392.16;;;19.60;69.17
70229;BME280;57617;51.988;5.854;2022-07-30T06:18:45;101393.53;;;19.63;69.23
70229;BME280;57617;51.988;5.854;2022-07-30T06:21:11;101399.03;;;19.63;69.27
70229;BME280;57617;51.988;5.854;2022-07-30T06:23:36;101407.88;;;19.65;69.21
70229;BME280;57617;51.988;5.854;2022-07-30T06:26:01;101410.03;;;19.68;68.92
70229;BME280;57617;51.988;5.854;2022-07-30T06:28:27;101405.88;;;19.70;69.11
70229;BME280;57617;51.988;5.854;2022-07-30T06:30:52;101408.09;;;19.73;68.88
70229;BME280;57617;51.988;5.854;2022-07-30T06:33:17;101411.38;;;19.75;68.75
70229;BME280;57617;51.988;5.854;2022-07-30T06:35:42;101412.72;;;19.78;68.96
70229;BME280;57617;51.988;5.854;2022-07-30T06:38:08;101413.81;;;19.82;68.87
70229;BME280;57617;51.988;5.854;2022-07-30T06:40:33;101421.78;;;19.83;68.85
70229;BME280;57617;51.988;5.854;2022-07-30T06:42:59;101418.19;;;19.83;68.67
70229;BME280;57617;51.988;5.854;2022-07-30T06:45:24;101417.91;;;19.84;68.78
70229;BME280;57617;51.988;5.854;2022-07-30T06:47:49;101419.56;;;19.85;68.56
70229;BME280;57617;51.988;5.854;2022-07-30T06:50:15;101425.63;;;19.87;68.28
70229;BME280;57617;51.988;5.854;2022-07-30T06:52:42;101425.63;;;19.87;68.21
70229;BME280;57617;51.988;5.854;2022-07-30T06:55:08;101430.56;;;19.90;68.22
70229;BME280;57617;51.988;5.854;2022-07-30T06:57:33;101425.59;;;19.92;67.88
70229;BME280;57617;51.988;5.854;2022-07-30T06:59:58;101430.00;;;19.93;67.84
70229;BME280;57617;51.988;5.854;2022-07-30T07:02:24;101424.72;;;19.97;67.83
70229;BME280;57617;51.988;5.854;2022-07-30T07:04:49;101419.16;;;20.02;67.86
70229;BME280;57617;51.988;5.854;2022-07-30T07:07:14;101435.44;;;20.08;67.87
70229;BME280;57617;51.988;5.854;2022-07-30T07:09:40;101424.91;;;20.10;67.59
70229;BME280;57617;51.988;5.854;2022-07-30T07:12:05;101426.00;;;20.14;67.40
70229;BME280;57617;51.988;5.854;2022-07-30T07:14:30;101422.94;;;20.16;67.08
70229;BME280;57617;51.988;5.854;2022-07-30T07:16:56;101427.88;;;20.19;67.03
70229;BME280;57617;51.988;5.854;2022-07-30T07:19:22;101428.66;;;20.24;67.14
70229;BME280;57617;51.988;5.854;2022-07-30T07:21:48;101436.34;;;20.27;66.58
70229;BME280;57617;51.988;5.854;2022-07-30T07:24:13;101431.91;;;20.31;66.54
70229;BME280;57617;51.988;5.854;2022-07-30T07:26:38;101428.34;;;20.31;66.32
70229;BME280;57617;51.988;5.854;2022-07-30T07:29:04;101435.44;;;20.37;66.26
70229;BME280;57617;51.988;5.854;2022-07-30T07:31:29;101429.03;;;20.41;66.28
70229;BME280;57617;51.988;5.854;2022-07-30T07:33:54;101430.63;;;20.47;66.02
70229;BME280;57617;51.988;5.854;2022-07-30T07:36:20;101430.59;;;20.52;66.07
70229;BME280;57617;51.988;5.854;2022-07-30T07:38:46;101435.25;;;20.57;65.69
70229;BME280;57617;51.988;5.854;2022-07-30T07:41:11;101430.25;;;20.59;65.61
70229;BME280;57617;51.988;5.854;2022-07-30T07:43:36;101443.94;;;20.69;65.31
70229;BME280;57617;51.988;5.854;2022-07-30T07:46:02;101441.97;;;20.74;65.11
70229;BME280;57617;51.988;5.854;2022-07-30T07:48:27;101448.53;;;20.78;64.98
70229;BME280;57617;51.988;5.854;2022-07-30T07:50:53;101449.66;;;20.77;64.71
70229;BME280;57617;51.988;5.854;2022-07-30T07:53:18;101454.31;;;20.82;64.15
70229;BME280;57617;51.988;5.854;2022-07-30T07:55:43;101457.09;;;20.82;63.85
70229;BME280;57617;51.988;5.854;2022-07-30T07:58:09;101436.44;;;20.74;63.59
70229;BME280;57617;51.988;5.854;2022-07-30T08:00:37;101450.44;;;20.83;63.61
70229;BME280;57617;51.988;5.854;2022-07-30T08:03:03;101441.31;;;20.82;63.32
70229;BME280;57617;51.988;5.854;2022-07-30T08:05:28;101445.13;;;20.91;63.17
70229;BME280;57617;51.988;5.854;2022-07-30T08:07:53;101445.34;;;20.95;63.06
70229;BME280;57617;51.988;5.854;2022-07-30T08:10:19;101439.53;;;20.96;62.45
70229;BME280;57617;51.988;5.854;2022-07-30T08:12:44;101442.53;;;21.00;62.10
70229;BME280;57617;51.988;5.854;2022-07-30T08:15:09;101438.66;;;21.01;61.89
70229;BME280;57617;51.988;5.854;2022-07-30T08:17:45;101437.53;;;21.02;61.27
70229;BME280;57617;51.988;5.854;2022-07-30T08:20:12;101442.69;;;21.08;61.40
70229;BME280;57617;51.988;5.854;2022-07-30T08:22:38;101432.72;;;21.12;60.82
70229;BME280;57617;51.988;5.854;2022-07-30T08:25:04;101439.59;;;21.15;60.53
70229;BME280;57617;51.988;5.854;2022-07-30T08:27:30;101435.91;;;21.19;60.24
70229;BME280;57617;51.988;5.854;2022-07-30T08:29:55;101435.84;;;21.24;59.87
70229;BME280;57617;51.988;5.854;2022-07-30T08:32:21;101440.53;;;21.29;59.81
70229;BME280;57617;51.988;5.854;2022-07-30T08:34:46;101435.72;;;21.34;59.41
70229;BME280;57617;51.988;5.854;2022-07-30T08:37:11;101431.47;;;21.42;59.33
70229;BME280;57617;51.988;5.854;2022-07-30T08:39:37;101437.78;;;21.47;59.42
70229;BME280;57617;51.988;5.854;2022-07-30T08:42:03;101415.66;;;21.47;59.18
70229;BME280;57617;51.988;5.854;2022-07-30T08:44:29;101428.00;;;21.55;58.92
70229;BME280;57617;51.988;5.854;2022-07-30T08:46:57;101416.38;;;21.53;58.55
70229;BME280;57617;51.988;5.854;2022-07-30T08:49:23;101422.09;;;21.61;57.92
70229;BME280;57617;51.988;5.854;2022-07-30T08:51:50;101421.44;;;21.69;57.75
70229;BME280;57617;51.988;5.854;2022-07-30T08:54:17;101428.31;;;21.72;57.53
70229;BME280;57617;51.988;5.854;2022-07-30T08:56:43;101436.75;;;21.80;57.13
70229;BME280;57617;51.988;5.854;2022-07-30T08:59:08;101435.78;;;21.90;56.99
70229;BME280;57617;51.988;5.854;2022-07-30T09:01:34;101439.81;;;21.97;56.52
70229;BME280;57617;51.988;5.854;2022-07-30T09:03:59;101443.44;;;22.11;56.26
70229;BME280;57617;51.988;5.854;2022-07-30T09:06:25;101439.38;;;22.22;56.12
70229;BME280;57617;51.988;5.854;2022-07-30T09:08:50;101435.66;;;22.32;55.73
70229;BME280;57617;51.988;5.854;2022-07-30T09:11:15;101440.41;;;22.45;55.28
70229;BME280;57617;51.988;5.854;2022-07-30T09:13:41;101435.72;;;22.59;54.66
70229;BME280;57617;51.988;5.854;2022-07-30T09:16:21;101438.50;;;22.72;53.04
70229;BME280;57617;51.988;5.854;2022-07-30T09:18:47;101433.63;;;22.83;54.39
70229;BME280;57617;51.988;5.854;2022-07-30T09:21:23;101435.16;;;23.02;53.33
70229;BME280;57617;51.988;5.854;2022-07-30T09:24:01;101439.56;;;23.17;52.47
70229;BME280;57617;51.988;5.854;2022-07-30T09:26:30;101431.78;;;23.32;52.50
70229;BME280;57617;51.988;5.854;2022-07-30T09:29:17;101433.56;;;23.50;50.44
70229;BME280;57617;51.988;5.854;2022-07-30T09:34:36;101441.03;;;23.77;50.47
70229;BME280;57617;51.988;5.854;2022-07-30T09:39:38;101448.66;;;24.07;49.81
70229;BME280;57617;51.988;5.854;2022-07-30T09:42:16;101443.22;;;24.24;48.52
70229;BME280;57617;51.988;5.854;2022-07-30T09:44:41;101454.59;;;24.36;48.77
70229;BME280;57617;51.988;5.854;2022-07-30T09:47:07;101449.28;;;24.48;48.49
70229;BME280;57617;51.988;5.854;2022-07-30T09:49:32;101438.94;;;24.62;47.70
70229;BME280;57617;51.988;5.854;2022-07-30T09:51:58;101445.53;;;24.74;47.45
70229;BME280;57617;51.988;5.854;2022-07-30T09:54:45;101448.22;;;24.88;46.53
70229;BME280;57617;51.988;5.854;2022-07-30T09:57:11;101442.88;;;25.00;47.61
70229;BME280;57617;51.988;5.854;2022-07-30T09:59:37;101446.03;;;25.15;47.40
70229;BME280;57617;51.988;5.854;2022-07-30T10:02:02;101439.56;;;25.28;46.47
70229;BME280;57617;51.988;5.854;2022-07-30T10:04:30;101444.50;;;25.40;46.15
70229;BME280;57617;51.988;5.854;2022-07-30T10:06:57;101429.44;;;25.41;45.53
70229;BME280;57617;51.988;5.854;2022-07-30T10:09:33;101447.31;;;25.65;43.44
70229;BME280;57617;51.988;5.854;2022-07-30T10:12:02;101442.56;;;25.74;44.59
70229;BME280;57617;51.988;5.854;2022-07-30T10:14:37;101446.34;;;25.87;42.99
70229;BME280;57617;51.988;5.854;2022-07-30T10:17:04;101440.66;;;26.00;44.51
70229;BME280;57617;51.988;5.854;2022-07-30T10:19:31;101441.63;;;26.13;43.95
70229;BME280;57617;51.988;5.854;2022-07-30T10:21:58;101431.31;;;26.22;43.79
70229;BME280;57617;51.988;5.854;2022-07-30T10:24:24;101432.13;;;26.31;43.23
70229;BME280;57617;51.988;5.854;2022-07-30T10:26:51;101425.88;;;26.42;42.66
70229;BME280;57617;51.988;5.854;2022-07-30T10:29:18;101426.31;;;26.53;42.32
70229;BME280;57617;51.988;5.854;2022-07-30T10:31:45;101425.00;;;26.59;41.94
70229;BME280;57617;51.988;5.854;2022-07-30T10:34:11;101424.97;;;26.67;40.91
70229;BME280;57617;51.988;5.854;2022-07-30T10:36:40;101427.41;;;26.77;40.99
70229;BME280;57617;51.988;5.854;2022-07-30T10:39:09;101423.44;;;26.87;40.37
70229;BME280;57617;51.988;5.854;2022-07-30T10:41:51;101418.31;;;26.97;39.51
70229;BME280;57617;51.988;5.854;2022-07-30T10:45:14;101428.63;;;27.05;39.01
70229;BME280;57617;51.988;5.854;2022-07-30T10:47:20;101431.03;;;27.15;39.61
70229;BME280;57617;51.988;5.854;2022-07-30T10:50:11;101425.22;;;27.29;38.72
70229;BME280;57617;51.988;5.854;2022-07-30T10:55:12;101420.44;;;27.38;38.89
70229;BME280;57617;51.988;5.854;2022-07-30T11:00:20;101423.03;;;27.43;38.25
70229;BME280;57617;51.988;5.854;2022-07-30T11:05:34;101422.44;;;27.58;38.44
70229;BME280;57617;51.988;5.854;2022-07-30T11:08:29;101423.53;;;27.65;38.03
70229;BME280;57617;51.988;5.854;2022-07-30T11:10:55;101418.72;;;27.66;38.35
70229;BME280;57617;51.988;5.854;2022-07-30T11:13:54;101428.19;;;27.73;37.80
70229;BME280;57617;51.988;5.854;2022-07-30T11:16:22;101424.44;;;27.69;38.14
70229;BME280;57617;51.988;5.854;2022-07-30T11:19:14;101417.38;;;27.72;36.77
70229;BME280;57617;51.988;5.854;2022-07-30T11:27:46;101437.94;;;27.67;38.34
70229;BME280;57617;51.988;5.854;2022-07-30T11:32:42;101429.78;;;27.62;37.81
70229;BME280;57617;51.988;5.854;2022-07-30T11:35:21;101425.00;;;27.63;37.55
70229;BME280;57617;51.988;5.854;2022-07-30T11:38:09;101420.66;;;27.74;37.74
70229;BME280;57617;51.988;5.854;2022-07-30T11:43:19;101426.25;;;27.74;38.37
70229;BME280;57617;51.988;5.854;2022-07-30T11:45:59;101423.66;;;27.69;38.37
70229;BME280;57617;51.988;5.854;2022-07-30T11:48:29;101424.94;;;27.71;38.63
70229;BME280;57617;51.988;5.854;2022-07-30T11:50:54;101427.59;;;27.68;38.79
70229;BME280;57617;51.988;5.854;2022-07-30T11:53:20;101422.88;;;27.60;39.06
70229;BME280;57617;51.988;5.854;2022-07-30T11:55:50;101424.53;;;27.61;38.67
70229;BME280;57617;51.988;5.854;2022-07-30T11:58:26;101415.16;;;27.65;39.05
70229;BME280;57617;51.988;5.854;2022-07-30T12:00:54;101420.47;;;27.79;38.89
70229;BME280;57617;51.988;5.854;2022-07-30T12:03:22;101419.88;;;27.94;38.95
70229;BME280;57617;51.988;5.854;2022-07-30T12:05:48;101414.19;;;28.02;38.77
70229;BME280;57617;51.988;5.854;2022-07-30T12:08:15;101422.03;;;28.09;38.74
70229;BME280;57617;51.988;5.854;2022-07-30T12:10:41;101426.44;;;28.10;38.57
70229;BME280;57617;51.988;5.854;2022-07-30T12:15:34;101411.31;;;28.11;38.63
70229;BME280;57617;51.988;5.854;2022-07-30T12:18:00;101415.19;;;27.98;38.67
70229;BME280;57617;51.988;5.854;2022-07-30T12:20:26;101413.97;;;28.07;38.53
70229;BME280;57617;51.988;5.854;2022-07-30T12:22:53;101406.94;;;28.22;38.48
70229;BME280;57617;51.988;5.854;2022-07-30T12:25:18;101406.16;;;28.33;38.54
70229;BME280;57617;51.988;5.854;2022-07-30T12:27:46;101413.44;;;28.46;38.55
70229;BME280;57617;51.988;5.854;2022-07-30T12:30:13;101418.47;;;28.65;38.52
70229;BME280;57617;51.988;5.854;2022-07-30T12:32:38;101402.91;;;28.76;37.99
70229;BME280;57617;51.988;5.854;2022-07-30T12:35:04;101388.91;;;28.76;37.51
70229;BME280;57617;51.988;5.854;2022-07-30T12:37:29;101407.81;;;28.91;37.24
70229;BME280;57617;51.988;5.854;2022-07-30T12:40:11;101403.72;;;28.88;36.43
70229;BME280;57617;51.988;5.854;2022-07-30T12:42:48;101400.00;;;28.84;35.11
70229;BME280;57617;51.988;5.854;2022-07-30T12:45:26;101407.78;;;28.79;36.57
70229;BME280;57617;51.988;5.854;2022-07-30T12:47:52;101402.91;;;28.76;36.67
70229;BME280;57617;51.988;5.854;2022-07-30T12:50:17;101399.97;;;28.72;36.78
70229;BME280;57617;51.988;5.854;2022-07-30T12:52:47;101402.31;;;28.70;36.75
70229;BME280;57617;51.988;5.854;2022-07-30T12:55:13;101398.22;;;28.68;36.67
70229;BME280;57617;51.988;5.854;2022-07-30T13:00:19;101394.50;;;28.76;36.76
70229;BME280;57617;51.988;5.854;2022-07-30T13:02:44;101414.44;;;28.86;36.65
70229;BME280;57617;51.988;5.854;2022-07-30T13:05:09;101408.84;;;28.86;36.67
70229;BME280;57617;51.988;5.854;2022-07-30T13:07:35;101401.72;;;28.89;36.98
70229;BME280;57617;51.988;5.854;2022-07-30T13:10:15;101400.56;;;28.90;36.41
70229;BME280;57617;51.988;5.854;2022-07-30T13:12:44;101400.94;;;28.88;36.38
70229;BME280;57617;51.988;5.854;2022-07-30T13:15:16;101398.38;;;28.83;35.76
70229;BME280;57617;51.988;5.854;2022-07-30T13:17:41;101395.31;;;28.76;36.19
70229;BME280;57617;51.988;5.854;2022-07-30T13:20:07;101398.00;;;28.73;36.24
70229;BME280;57617;51.988;5.854;2022-07-30T13:22:33;101399.16;;;28.72;36.25